Portland-Hillsboro, OR

7:10 PM PDT on May 05, 2015 (GMT -0700)
Portland-Hillsboro | | Change Station
CLOSE
Current Station
Airport
Location: Portland Hillsboro,
Elevation: 203 ft
Nearby Weather Stations

Elev 203 ft 45.54 °N, 122.95 °W | Updated 17 minutes ago

Mostly Cloudy
Mostly Cloudy
57 °F
Feels Like 57 °F
N
16
Wind Variable Wind from WNW

Today
High -- | Low -- °F
--% Chance of Precip.
Yesterday
High -- | Low -- °F
Precip. -- in
5:54 AM 8:23 PM
Waning Gibbous, 96% visible
Pressure 30.06 in
Visibility 10.0 miles
Clouds Scattered Clouds 2500 ft
Mostly Cloudy 5000 ft
Dew Point 38 °F
Humidity 49%
Rainfall 0.02 in
Snow Depth Not available.
UV 0 out of 12
Pollen 4.60 out of 12
Air Quality Not available.
Flu Activity Regional
METAR KHIO 060153Z 29014KT 10SM SCT025 BKN050 14/03 A3006 RMK AO2 SLP180 T01390033

More Conditions Fewer Conditions

Pressure 30.06 in
Visibility 10.0 miles
Clouds Scattered Clouds 2500 ft
Mostly Cloudy 5000 ft
Dew Point 38 °F
Humidity 49%
Rainfall 0.02 in
Snow Depth Not available.
UV 0 out of 12
Pollen 4.60 out of 12
Air Quality Not available.
Flu Activity Regional
METAR KHIO 060153Z 29014KT 10SM SCT025 BKN050 14/03 A3006 RMK AO2 SLP180 T01390033

More Conditions Fewer Conditions

10-Day Weather Forecast

Almanac

Astronomy

May. 05, 2015 Rise Set
Actual Time
Civil Twilight
Nautical Twilight
Astronomical Twilight
Moon
Length of Visible Light
Length of Day
Tomorrow will be .
, % of the Moon is Illuminated

Today's Extremes

State Highs State Lows

Community

WunderPhotos

Upload Photos

1,819,041 photos uploaded!

WunderBlogs® & News

Nearby

Air Quality

  Air Quality AQ Index Pollutant
Not available.

Snow Depth

Station Depth Elevation

Earthquake Activity

City Distance Mag. Time & Date
Minimum magnitude displayed is 2.5.

Coastal Water Temperatures

Place Temperature

Stations

Nearby Weather Stations

Station Location Temp. Windchill Dew Point Humidity Wind Precip. Elev Updated Type